Time;durP1;ratioP1;P1;durP2;ratioP2;P2;SDS_P1;SDS_P2;PMS_P1;PMS_P2;Temp;Humidity;BMP_temperature;BMP_pressure;BME280_temperature;BME280_humidity;BME280_pressure;Samples;Min_cycle;Max_cycle;Signal;HPM_P1;HPM_P2
2022/04/17 00:00:18;;;;;;;4.13;1.37;;;6.50;80.00;;;;;;6239453;28;20272;-76
2022/04/17 00:03:29;;;;;;;2.40;1.17;;;6.40;83.80;;;;;;6238507;28;20296;-75
2022/04/17 00:06:34;;;;;;;1.17;1.17;;;6.40;82.50;;;;;;6239277;28;20276;-76
2022/04/17 00:09:39;;;;;;;4.83;1.10;;;6.30;83.20;;;;;;6238488;28;20304;-75
2022/04/17 00:12:45;;;;;;;0.90;0.90;;;6.30;82.00;;;;;;6238518;28;20477;-75
2022/04/17 00:15:51;;;;;;;1.13;1.10;;;6.30;84.50;;;;;;6238697;28;20272;-75
2022/04/17 00:18:58;;;;;;;1.20;1.10;;;6.20;83.30;;;;;;6238320;28;20296;-75
2022/04/17 00:22:04;;;;;;;1.10;1.10;;;6.30;83.60;;;;;;6238456;28;20268;-76
2022/04/17 00:25:12;;;;;;;1.10;0.90;;;6.30;85.50;;;;;;6237988;28;20272;-76
2022/04/17 00:28:18;;;;;;;3.07;1.20;;;6.40;85.50;;;;;;6214033;28;20297;-76
2022/04/17 00:31:23;;;;;;;1.17;1.07;;;6.40;87.60;;;;;;6213748;28;20270;-76
2022/04/17 00:34:30;;;;;;;1.70;1.10;;;6.40;86.60;;;;;;6213622;28;20300;-75
2022/04/17 00:37:36;;;;;;;1.20;1.20;;;6.50;86.00;;;;;;6213618;28;20301;-75
2022/04/17 00:40:42;;;;;;;1.33;1.33;;;6.50;87.30;;;;;;6213936;28;20465;-76
2022/04/17 00:43:52;;;;;;;1.20;1.10;;;6.50;88.80;;;;;;6212501;28;20300;-75
2022/04/17 00:46:57;;;;;;;1.10;1.10;;;6.40;84.60;;;;;;6214291;28;20277;-76
2022/04/17 00:50:07;;;;;;;1.10;1.10;;;6.40;88.20;;;;;;6213055;28;20281;-76
2022/04/17 00:53:14;;;;;;;1.80;1.25;;;6.50;87.20;;;;;;6213757;28;20300;-76
2022/04/17 00:56:19;;;;;;;1.48;1.35;;;6.50;87.00;;;;;;6214116;28;20269;-76
2022/04/17 00:59:25;;;;;;;3.10;0.90;;;6.40;85.70;;;;;;6213535;28;20305;-76
2022/04/17 01:02:30;;;;;;;3.37;1.30;;;6.50;87.10;;;;;;6213129;28;20297;-76
2022/04/17 01:05:39;;;;;;;3.00;1.00;;;6.50;87.20;;;;;;6214013;28;20273;-76
2022/04/17 01:08:44;;;;;;;2.97;1.30;;;6.60;88.70;;;;;;6212950;28;20301;-75
2022/04/17 01:11:51;;;;;;;1.43;1.20;;;6.50;86.50;;;;;;6232109;28;20305;-77
2022/04/17 01:14:57;;;;;;;1.73;1.03;;;6.60;85.90;;;;;;6236559;28;20296;-75
2022/04/17 01:18:02;;;;;;;1.80;1.50;;;6.60;86.10;;;;;;6237168;28;20292;-75
2022/04/17 01:21:11;;;;;;;2.10;1.07;;;6.50;86.60;;;;;;6237667;28;20568;-77
2022/04/17 01:27:40;;;;;;;1.17;1.17;;;6.50;88.00;;;;;;6236763;28;20305;-76
2022/04/17 01:30:52;;;;;;;1.83;1.00;;;6.50;90.20;;;;;;6237320;28;20277;-77
2022/04/17 01:33:57;;;;;;;0.90;0.90;;;6.50;90.60;;;;;;6236885;28;20301;-76
2022/04/17 01:37:03;;;;;;;1.00;1.00;;;6.40;91.10;;;;;;6236533;28;20380;-75
2022/04/17 01:40:13;;;;;;;0.95;0.95;;;6.40;91.70;;;;;;6236630;28;20276;-76
2022/04/17 01:43:18;;;;;;;1.00;1.00;;;6.40;92.50;;;;;;6236578;28;20305;-76
2022/04/17 01:46:24;;;;;;;0.90;0.90;;;6.40;93.90;;;;;;6237250;28;20276;-76
2022/04/17 01:49:29;;;;;;;1.70;0.90;;;6.40;93.90;;;;;;6236357;28;20295;-76
2022/04/17 01:52:34;;;;;;;0.80;0.80;;;6.40;94.40;;;;;;6236568;28;20468;-76
2022/04/17 01:55:41;;;;;;;1.23;0.90;;;6.50;94.70;;;;;;6236874;28;20272;-77
2022/04/17 01:58:47;;;;;;;1.83;1.07;;;6.40;95.20;;;;;;6218689;28;20241;-77
2022/04/17 02:01:54;;;;;;;0.80;0.80;;;6.40;95.70;;;;;;6236829;28;20268;-76
2022/04/17 02:05:00;;;;;;;1.07;0.80;;;6.40;96.10;;;;;;6236022;28;20280;-77
2022/04/17 02:08:07;;;;;;;1.00;1.00;;;6.40;96.40;;;;;;6236067;28;20308;-76
2022/04/17 02:11:13;;;;;;;2.80;1.03;;;6.40;96.40;;;;;;6236680;28;20587;-76
2022/04/17 02:14:19;;;;;;;0.80;0.80;;;6.40;96.60;;;;;;6235996;28;20296;-76
2022/04/17 02:17:24;;;;;;;0.87;0.87;;;6.40;97.00;;;;;;6235901;28;20288;-76
2022/04/17 02:20:30;;;;;;;1.07;1.00;;;6.40;97.10;;;;;;6236194;28;20287;-76
2022/04/17 02:23:35;;;;;;;0.73;0.73;;;6.40;97.80;;;;;;6236063;28;20300;-76
2022/04/17 02:26:42;;;;;;;1.10;1.10;;;6.40;97.60;;;;;;6223718;28;20269;-76
2022/04/17 02:29:47;;;;;;;0.80;0.80;;;6.40;97.90;;;;;;6212026;28;20312;-76
2022/04/17 02:32:52;;;;;;;0.70;0.70;;;6.40;98.20;;;;;;6211594;28;20303;-76
2022/04/17 02:35:58;;;;;;;0.87;0.87;;;6.30;98.00;;;;;;6212168;28;20272;-76
2022/04/17 02:39:04;;;;;;;2.57;0.80;;;6.30;98.10;;;;;;6211592;28;20541;-75
2022/04/17 02:42:12;;;;;;;0.70;0.70;;;6.30;98.20;;;;;;6211190;28;20280;-75
2022/04/17 02:45:18;;;;;;;0.70;0.70;;;6.30;98.50;;;;;;6211839;28;20273;-75
2022/04/17 02:48:23;;;;;;;0.70;0.70;;;6.40;98.30;;;;;;6211254;28;20495;-75
2022/04/17 02:51:28;;;;;;;0.80;0.80;;;6.40;98.60;;;;;;6212331;28;20274;-75
2022/04/17 02:54:34;;;;;;;1.03;1.03;;;6.40;98.30;;;;;;6211651;28;20301;-75
2022/04/17 02:57:41;;;;;;;0.93;0.90;;;6.40;98.50;;;;;;6215772;28;20293;-75
2022/04/17 03:07:34;;;;;;;2.00;0.90;;;6.40;99.20;;;;;;6234109;28;20296;-76
2022/04/17 03:10:41;;;;;;;2.67;0.80;;;6.30;99.10;;;;;;6231467;28;20596;-76
2022/04/17 03:13:48;;;;;;;1.17;0.80;;;6.30;99.50;;;;;;6215874;28;20481;-75
2022/04/17 03:16:54;;;;;;;0.80;0.80;;;6.30;99.70;;;;;;6215568;28;20576;-76
2022/04/17 03:20:03;;;;;;;0.80;0.80;;;6.40;99.60;;;;;;6231332;28;20312;-75
2022/04/17 03:23:09;;;;;;;1.70;1.00;;;6.30;99.80;;;;;;6239565;28;20472;-76
2022/04/17 03:26:15;;;;;;;0.77;0.77;;;6.30;99.90;;;;;;6240018;28;20434;-76
2022/04/17 03:29:21;;;;;;;0.90;0.90;;;6.30;99.90;;;;;;6239366;28;20303;-76
2022/04/17 03:32:27;;;;;;;0.90;0.90;;;6.30;99.90;;;;;;6239145;28;20291;-76
2022/04/17 03:35:32;;;;;;;0.80;0.80;;;6.40;99.90;;;;;;6237501;28;20292;-76
2022/04/17 03:38:37;;;;;;;2.27;0.90;;;6.40;99.90;;;;;;6215058;28;20296;-76
2022/04/17 03:41:43;;;;;;;0.80;0.80;;;6.40;99.70;;;;;;6215476;28;20272;-76
2022/04/17 03:44:49;;;;;;;1.10;0.97;;;6.40;99.90;;;;;;6215293;28;20297;-76
2022/04/17 03:47:55;;;;;;;0.97;0.90;;;6.40;99.90;;;;;;6214848;28;20293;-75
2022/04/17 03:51:00;;;;;;;0.90;0.90;;;6.40;99.90;;;;;;6215101;28;20280;-76
2022/04/17 03:54:05;;;;;;;1.07;0.90;;;6.40;99.90;;;;;;6214990;28;20301;-76
2022/04/17 03:57:11;;;;;;;1.40;0.90;;;6.40;99.90;;;;;;6215036;28;20293;-76
2022/04/17 04:00:19;;;;;;;3.07;0.93;;;6.40;99.80;;;;;;6213761;28;20603;-76
2022/04/17 04:03:24;;;;;;;1.33;0.77;;;6.40;99.90;;;;;;6214906;28;20293;-76
2022/04/17 04:06:29;;;;;;;0.87;0.80;;;6.40;99.90;;;;;;6214655;28;20273;-75
2022/04/17 04:09:34;;;;;;;1.57;0.97;;;6.40;99.90;;;;;;6216247;28;20306;-76
2022/04/17 04:12:40;;;;;;;1.00;1.00;;;6.50;99.80;;;;;;6238869;28;20296;-76
2022/04/17 04:15:46;;;;;;;0.90;0.90;;;6.50;99.90;;;;;;6239053;28;20273;-76
2022/04/17 04:18:52;;;;;;;2.93;0.90;;;6.50;99.90;;;;;;6238489;28;20304;-75
2022/04/17 04:21:57;;;;;;;0.90;0.90;;;6.60;99.90;;;;;;6237814;28;20297;-75
2022/04/17 04:25:02;;;;;;;1.00;1.00;;;6.60;99.90;;;;;;6238299;28;20277;-76
2022/04/17 04:31:44;;;;;;;0.80;0.80;;;6.50;99.90;;;;;;6187352;28;20277;-76
2022/04/17 04:34:49;;;;;;;0.90;0.90;;;6.50;99.90;;;;;;6237991;28;20301;-76
2022/04/17 04:37:55;;;;;;;1.83;0.90;;;6.50;99.90;;;;;;6237717;28;20300;-76
2022/04/17 04:41:00;;;;;;;1.23;0.80;;;6.60;99.90;;;;;;6237793;28;20300;-76
2022/04/17 04:44:06;;;;;;;1.00;1.00;;;6.60;99.90;;;;;;6237607;28;20296;-76
2022/04/17 04:47:13;;;;;;;0.80;0.80;;;6.50;99.90;;;;;;6237438;28;20296;-76
2022/04/17 04:50:18;;;;;;;0.80;0.80;;;6.60;99.90;;;;;;6237820;28;20381;-75
2022/04/17 04:53:24;;;;;;;0.80;0.80;;;6.60;99.90;;;;;;6237304;28;20300;-76
2022/04/17 04:56:29;;;;;;;1.73;0.83;;;6.60;99.90;;;;;;6237486;28;20276;-76
2022/04/17 04:59:35;;;;;;;0.80;0.80;;;6.70;99.90;;;;;;6237483;28;20296;-76
2022/04/17 05:02:42;;;;;;;3.67;1.00;;;6.70;99.90;;;;;;6237235;28;20300;-76
2022/04/17 05:05:47;;;;;;;0.90;0.90;;;6.70;99.90;;;;;;6237642;28;20328;-76
2022/04/17 05:08:52;;;;;;;1.10;1.10;;;6.70;99.90;;;;;;6237401;28;20296;-76
2022/04/17 05:11:58;;;;;;;1.13;1.13;;;6.80;99.90;;;;;;6234992;28;20296;-76
2022/04/17 05:15:03;;;;;;;0.93;0.93;;;6.80;99.90;;;;;;6237484;28;20271;-75
2022/04/17 05:18:17;;;;;;;1.00;0.93;;;6.90;99.90;;;;;;6235950;28;20292;-75
2022/04/17 05:21:31;;;;;;;2.00;1.00;;;7.00;99.90;;;;;;6237240;28;20297;-75
2022/04/17 05:24:36;;;;;;;2.42;1.00;;;7.00;99.90;;;;;;6237111;28;20301;-75
2022/04/17 05:27:42;;;;;;;1.40;1.00;;;7.00;99.90;;;;;;6236921;28;20292;-75
2022/04/17 05:30:47;;;;;;;1.13;1.13;;;7.00;99.90;;;;;;6236739;28;20272;-75
2022/04/17 05:33:55;;;;;;;0.80;0.80;;;7.10;99.90;;;;;;6236530;28;20432;-77
2022/04/17 05:37:00;;;;;;;1.00;1.00;;;7.10;99.90;;;;;;6236720;28;20275;-75
2022/04/17 05:40:09;;;;;;;1.00;1.00;;;7.20;99.90;;;;;;6236916;28;20272;-75
2022/04/17 05:43:15;;;;;;;0.90;0.90;;;7.30;99.60;;;;;;6236994;28;20433;-76
2022/04/17 05:46:21;;;;;;;0.90;0.90;;;7.30;99.50;;;;;;6236679;28;20417;-76
2022/04/17 05:49:28;;;;;;;1.02;1.02;;;7.30;99.60;;;;;;6236437;28;20316;-75
2022/04/17 05:52:33;;;;;;;1.00;1.00;;;7.20;99.60;;;;;;6236314;28;20615;-75
2022/04/17 05:55:40;;;;;;;0.90;0.90;;;7.20;99.70;;;;;;6237018;28;20273;-76
2022/04/17 05:58:45;;;;;;;0.90;0.90;;;7.20;99.90;;;;;;6236104;28;20607;-76
2022/04/17 06:01:51;;;;;;;0.90;0.90;;;7.10;99.90;;;;;;6236230;28;20304;-76
2022/04/17 06:04:57;;;;;;;0.80;0.80;;;7.20;99.70;;;;;;6236480;28;20272;-78
2022/04/17 06:08:03;;;;;;;0.90;0.90;;;7.20;99.90;;;;;;6235871;28;20297;-77
2022/04/17 06:11:09;;;;;;;1.48;0.82;;;7.10;99.80;;;;;;6236140;28;20511;-75
2022/04/17 06:14:14;;;;;;;0.80;0.80;;;7.10;99.90;;;;;;6236266;28;20301;-76
2022/04/17 06:17:19;;;;;;;0.98;0.98;;;7.20;99.90;;;;;;6235619;28;20292;-76
2022/04/17 06:20:27;;;;;;;1.10;1.10;;;7.30;99.60;;;;;;6236511;28;20268;-76
2022/04/17 06:23:32;;;;;;;1.00;1.00;;;7.40;99.70;;;;;;6235562;28;20300;-76
2022/04/17 06:26:37;;;;;;;1.10;1.10;;;7.40;99.90;;;;;;6236368;28;20272;-76
2022/04/17 06:29:43;;;;;;;1.05;1.05;;;7.40;99.40;;;;;;6235741;28;20296;-75
2022/04/17 06:32:50;;;;;;;1.53;1.17;;;7.60;99.10;;;;;;6240688;28;20292;-76
2022/04/17 06:35:56;;;;;;;3.72;1.10;;;7.60;98.50;;;;;;6241237;28;20268;-76
2022/04/17 06:39:02;;;;;;;1.95;1.10;;;7.70;98.00;;;;;;6240529;28;20304;-76
2022/04/17 06:42:07;;;;;;;1.30;1.00;;;7.90;98.00;;;;;;6240212;28;20296;-76
2022/04/17 06:45:12;;;;;;;2.38;1.00;;;8.00;97.40;;;;;;6240738;28;20277;-76
2022/04/17 06:48:19;;;;;;;1.10;1.10;;;8.10;96.90;;;;;;6240491;28;20296;-77
2022/04/17 06:51:26;;;;;;;1.10;1.10;;;8.30;95.80;;;;;;6241163;28;20272;-76
2022/04/17 06:54:31;;;;;;;3.53;1.10;;;8.50;95.30;;;;;;6240084;28;20296;-76
2022/04/17 06:57:37;;;;;;;2.80;1.15;;;8.70;94.40;;;;;;6240338;28;20471;-76
2022/04/17 07:00:43;;;;;;;1.75;1.10;;;9.00;93.10;;;;;;6240412;28;20272;-76
2022/04/17 07:03:48;;;;;;;2.45;1.10;;;9.50;90.50;;;;;;6239795;28;20303;-75
2022/04/17 07:06:54;;;;;;;2.55;1.00;;;9.90;89.20;;;;;;6222261;28;20268;-76
2022/04/17 07:10:00;;;;;;;0.95;0.95;;;10.20;87.60;;;;;;6238528;28;20286;-76
2022/04/17 07:13:07;;;;;;;1.20;1.20;;;10.30;84.90;;;;;;6238109;28;20308;-76
2022/04/17 07:16:13;;;;;;;1.50;0.95;;;10.20;82.50;;;;;;6238974;28;20272;-76
2022/04/17 07:19:18;;;;;;;1.05;1.05;;;10.10;85.80;;;;;;6238563;28;20301;-76
2022/04/17 07:22:25;;;;;;;2.83;0.93;;;9.90;83.10;;;;;;6238476;28;20304;-77
2022/04/17 07:25:30;;;;;;;1.98;1.15;;;9.90;84.00;;;;;;6238707;28;20268;-77
2022/04/17 07:28:37;;;;;;;2.53;1.10;;;10.00;84.10;;;;;;6238075;28;20300;-76
2022/04/17 07:31:43;;;;;;;2.05;1.00;;;10.00;83.90;;;;;;6237940;28;20268;-75
2022/04/17 07:34:50;;;;;;;0.85;0.85;;;10.10;84.60;;;;;;6237692;28;20299;-76
2022/04/17 07:37:59;;;;;;;0.93;0.93;;;10.30;82.70;;;;;;6237638;28;20292;-76
2022/04/17 07:41:05;;;;;;;1.10;0.90;;;10.40;79.30;;;;;;6237965;28;20272;-78
2022/04/17 07:44:11;;;;;;;1.38;0.80;;;10.60;78.30;;;;;;6237525;28;20308;-77
2022/04/17 07:47:17;;;;;;;2.80;1.40;;;10.90;75.80;;;;;;6237575;28;20292;-77
2022/04/17 07:50:25;;;;;;;0.98;0.98;;;11.20;76.10;;;;;;6238154;28;20272;-77
2022/04/17 07:53:32;;;;;;;1.00;1.00;;;11.30;71.80;;;;;;6237601;28;20304;-77
2022/04/17 07:56:38;;;;;;;2.90;1.10;;;11.50;69.60;;;;;;6237639;28;20432;-77
2022/04/17 07:59:43;;;;;;;0.98;0.90;;;11.50;68.70;;;;;;6237380;28;20296;-77
2022/04/17 08:03:46;;;;;;;1.35;0.77;;;11.60;65.80;;;;;;6237050;28;20607;-77
2022/04/17 08:06:51;;;;;;;1.50;0.95;;;11.70;65.10;;;;;;6237208;28;20427;-78
2022/04/17 08:09:58;;;;;;;0.90;0.90;;;11.50;64.70;;;;;;6198965;28;1119165;-77
2022/04/17 08:13:04;;;;;;;3.72;0.93;;;11.80;65.70;;;;;;6238563;28;20478;-77
2022/04/17 08:16:11;;;;;;;0.98;0.98;;;11.90;65.40;;;;;;6238472;28;20273;-77
2022/04/17 08:19:18;;;;;;;0.80;0.80;;;12.10;63.20;;;;;;6238164;28;20292;-77
2022/04/17 08:22:23;;;;;;;0.85;0.85;;;12.20;63.00;;;;;;6238274;28;20297;-77
2022/04/17 08:25:30;;;;;;;2.40;0.82;;;12.10;61.70;;;;;;6238923;28;20277;-77
2022/04/17 08:28:36;;;;;;;0.95;0.88;;;11.90;63.30;;;;;;6238243;28;20296;-77
2022/04/17 08:31:41;;;;;;;0.85;0.85;;;12.00;62.90;;;;;;6238672;28;20580;-77
2022/04/17 08:34:47;;;;;;;1.38;1.00;;;12.10;63.00;;;;;;6238204;28;20300;-77
2022/04/17 08:37:54;;;;;;;0.82;0.82;;;12.20;62.80;;;;;;6238169;28;20474;-77
2022/04/17 08:41:05;;;;;;;1.20;0.73;;;12.30;62.80;;;;;;6237936;28;20272;-77
2022/04/17 08:44:12;;;;;;;0.95;0.95;;;12.40;63.10;;;;;;6237380;28;20317;-76
2022/04/17 08:47:17;;;;;;;0.95;0.95;;;12.40;61.80;;;;;;6237734;28;20296;-77
2022/04/17 08:50:22;;;;;;;5.95;1.92;;;12.50;61.70;;;;;;6238071;28;20272;-77
2022/04/17 08:53:29;;;;;;;0.80;0.80;;;12.60;60.30;;;;;;6236280;28;20372;-77
2022/04/17 08:56:37;;;;;;;0.85;0.85;;;12.70;60.30;;;;;;6237933;28;20269;-77
2022/04/17 08:59:42;;;;;;;0.90;0.90;;;12.80;59.70;;;;;;6237508;28;20304;-77
2022/04/17 09:02:48;;;;;;;0.73;0.73;;;12.90;59.30;;;;;;6237178;28;20304;-77
2022/04/17 09:05:54;;;;;;;1.00;1.00;;;12.90;59.50;;;;;;6237945;28;20288;-77
2022/04/17 09:09:01;;;;;;;1.00;1.00;;;13.10;59.40;;;;;;6236888;28;20292;-77
2022/04/17 09:12:08;;;;;;;1.00;1.00;;;13.10;58.60;;;;;;6235537;28;20292;-77
2022/04/17 09:15:18;;;;;;;1.00;1.00;;;13.20;59.70;;;;;;6237204;28;20442;-77
2022/04/17 09:18:24;;;;;;;0.93;0.90;;;13.00;58.90;;;;;;6237327;28;20434;-76
2022/04/17 09:21:34;;;;;;;1.00;1.00;;;13.20;60.00;;;;;;6237136;28;20267;-77
2022/04/17 09:24:41;;;;;;;0.98;0.85;;;13.20;58.90;;;;;;6236726;28;20591;-77
2022/04/17 09:28:01;;;;;;;1.10;1.10;;;13.20;59.40;;;;;;6236576;28;20296;-77
2022/04/17 09:31:14;;;;;;;0.93;0.93;;;13.20;59.50;;;;;;6236658;28;20272;-77
2022/04/17 09:34:19;;;;;;;0.82;0.82;;;13.20;59.00;;;;;;6236339;28;20304;-77
2022/04/17 09:37:27;;;;;;;1.00;1.00;;;13.10;59.10;;;;;;6236501;28;20297;-77
2022/04/17 09:40:32;;;;;;;1.48;1.40;;;13.20;58.60;;;;;;6237217;28;20272;-77
2022/04/17 09:43:39;;;;;;;1.08;1.00;;;13.10;58.10;;;;;;6236774;28;20296;-76
2022/04/17 09:46:58;;;;;;;0.93;0.93;;;13.20;58.90;;;;;;6236557;28;20276;-77
2022/04/17 09:50:06;;;;;;;1.17;0.98;;;13.10;59.20;;;;;;6236088;28;20277;-77
2022/04/17 09:53:31;;;;;;;0.90;0.90;;;13.20;59.00;;;;;;6236392;28;20296;-77
2022/04/17 09:56:40;;;;;;;0.90;0.90;;;13.20;58.20;;;;;;6236367;28;20272;-77
2022/04/17 09:59:48;;;;;;;1.75;0.80;;;13.20;58.30;;;;;;6235962;28;20296;-77
2022/04/17 10:02:54;;;;;;;0.90;0.90;;;13.20;58.50;;;;;;6236459;28;20291;-77
2022/04/17 10:05:59;;;;;;;4.15;1.10;;;13.10;58.30;;;;;;6236161;28;20297;-77
2022/04/17 10:09:06;;;;;;;2.75;1.00;;;13.10;59.30;;;;;;6236168;28;20484;-77
2022/04/17 10:12:14;;;;;;;1.00;1.00;;;13.30;58.60;;;;;;6235461;28;20296;-76
2022/04/17 10:15:21;;;;;;;1.00;1.00;;;13.40;59.10;;;;;;6236706;28;20272;-77
2022/04/17 10:18:30;;;;;;;1.23;1.23;;;13.30;59.20;;;;;;6235824;28;20295;-76
2022/04/17 10:21:36;;;;;;;1.00;0.98;;;13.20;59.30;;;;;;6235879;28;20276;-76
2022/04/17 10:24:51;;;;;;;1.00;1.00;;;13.10;59.40;;;;;;6236078;28;20320;-77
2022/04/17 10:28:00;;;;;;;1.10;1.10;;;12.90;61.30;;;;;;6235303;28;20456;-77
2022/04/17 10:31:16;;;;;;;1.80;1.00;;;12.80;61.80;;;;;;6236386;28;20449;-78
2022/04/17 10:34:51;;;;;;;2.55;1.27;;;12.60;63.90;;;;;;6235805;28;20292;-78
2022/04/17 10:38:25;;;;;;;1.52;1.00;;;12.70;64.60;;;;;;6235836;28;20300;-78
2022/04/17 10:41:30;;;;;;;1.02;1.02;;;12.60;66.50;;;;;;6235752;28;20528;-78
2022/04/17 10:44:38;;;;;;;1.42;1.33;;;12.60;67.80;;;;;;6235389;28;20304;-78
2022/04/17 10:48:03;;;;;;;1.27;1.27;;;12.70;67.40;;;;;;6235448;28;20607;-78
2022/04/17 10:51:19;;;;;;;1.33;1.33;;;12.70;68.20;;;;;;6235524;28;20273;-78
2022/04/17 10:54:24;;;;;;;1.30;1.20;;;12.70;68.30;;;;;;6235321;28;20483;-78
2022/04/17 10:57:29;;;;;;;2.60;1.30;;;12.80;68.30;;;;;;6235566;28;20571;-78
2022/04/17 11:00:41;;;;;;;2.38;1.30;;;12.80;67.50;;;;;;6218393;28;20273;-77
2022/04/17 11:03:56;;;;;;;1.38;1.20;;;12.90;67.00;;;;;;6235327;28;20603;-77
2022/04/17 11:07:29;;;;;;;1.20;1.20;;;12.90;66.90;;;;;;6235196;28;20288;-77
2022/04/17 11:10:42;;;;;;;1.33;1.33;;;12.90;66.20;;;;;;6234004;28;20304;-77
2022/04/17 11:14:13;;;;;;;1.30;1.17;;;13.00;66.10;;;;;;6235332;28;20309;-76
2022/04/17 11:17:20;;;;;;;1.60;1.50;;;13.20;66.30;;;;;;6237326;28;20383;-76
2022/04/17 11:20:27;;;;;;;1.00;1.00;;;13.20;66.20;;;;;;6240216;28;20551;-78
2022/04/17 11:23:58;;;;;;;1.60;1.38;;;13.30;65.60;;;;;;6239165;28;20483;-78
2022/04/17 11:27:10;;;;;;;1.17;1.05;;;13.30;65.70;;;;;;6239587;28;20590;-78
2022/04/17 11:30:36;;;;;;;1.08;1.08;;;13.40;63.80;;;;;;6240185;28;20276;-78
2022/04/17 11:33:41;;;;;;;1.33;1.13;;;13.40;63.60;;;;;;6239383;28;20297;-78
2022/04/17 11:36:49;;;;;;;1.08;1.02;;;13.40;62.30;;;;;;6239954;28;20281;-78
2022/04/17 11:39:56;;;;;;;1.13;1.13;;;13.40;62.10;;;;;;6238666;28;20281;-78
2022/04/17 11:43:13;;;;;;;1.40;1.30;;;13.40;62.90;;;;;;6239195;28;20288;-78
2022/04/17 11:46:19;;;;;;;1.58;1.50;;;13.40;63.10;;;;;;6239205;28;20296;-78
2022/04/17 11:49:24;;;;;;;1.38;1.38;;;13.50;63.00;;;;;;6239277;28;20304;-77
2022/04/17 11:52:32;;;;;;;1.55;1.20;;;13.60;62.00;;;;;;6239112;28;20583;-77
2022/04/17 11:55:40;;;;;;;1.35;1.35;;;13.70;62.00;;;;;;6239578;28;20476;-77
2022/04/17 11:58:45;;;;;;;1.20;1.20;;;13.80;61.20;;;;;;6237515;28;20315;-77
2022/04/17 12:02:08;;;;;;;2.20;1.33;;;13.90;61.20;;;;;;6238766;28;20268;-77
2022/04/17 12:05:16;;;;;;;1.30;1.20;;;13.90;61.20;;;;;;6238518;28;20268;-77
2022/04/17 12:08:24;;;;;;;1.33;1.33;;;13.70;61.10;;;;;;6238550;28;20293;-76
2022/04/17 12:11:30;;;;;;;4.13;1.27;;;13.70;60.90;;;;;;6238522;28;20297;-76
2022/04/17 12:14:35;;;;;;;6.50;1.35;;;13.60;60.20;;;;;;6238263;28;20300;-77
2022/04/17 12:17:41;;;;;;;2.33;1.20;;;13.60;60.50;;;;;;6220883;28;20284;-78
2022/04/17 12:20:58;;;;;;;1.90;1.20;;;13.70;60.80;;;;;;6238680;28;20272;-78
2022/04/17 12:24:05;;;;;;;1.20;1.08;;;13.70;60.50;;;;;;6238085;28;20296;-79
2022/04/17 12:27:13;;;;;;;1.50;1.40;;;13.80;60.60;;;;;;6237789;28;20300;-76
2022/04/17 12:30:20;;;;;;;1.40;1.30;;;13.80;60.40;;;;;;6238223;28;20273;-76
2022/04/17 12:33:28;;;;;;;1.40;1.40;;;13.80;60.20;;;;;;6237754;28;20304;-76
2022/04/17 12:36:33;;;;;;;1.40;1.40;;;13.60;62.10;;;;;;6238006;28;20276;-76
2022/04/17 12:39:40;;;;;;;1.70;1.60;;;13.50;61.60;;;;;;6237762;28;20435;-78
2022/04/17 12:42:45;;;;;;;1.65;1.33;;;13.50;62.30;;;;;;6237690;28;20292;-77
2022/04/17 12:45:59;;;;;;;1.30;1.20;;;13.50;62.40;;;;;;6237872;28;20280;-76
2022/04/17 12:49:08;;;;;;;1.50;1.50;;;13.40;62.00;;;;;;6237604;28;20296;-77
2022/04/17 12:52:21;;;;;;;1.48;1.48;;;13.40;61.90;;;;;;6237207;28;20291;-77
2022/04/17 12:55:34;;;;;;;3.97;1.50;;;13.30;62.10;;;;;;6238026;28;20276;-77
2022/04/17 12:58:51;;;;;;;2.58;1.30;;;13.30;62.40;;;;;;6237034;28;20594;-77
2022/04/17 13:01:56;;;;;;;1.40;1.30;;;13.40;62.90;;;;;;6236826;28;20277;-77
2022/04/17 13:05:02;;;;;;;1.83;1.60;;;13.50;62.80;;;;;;6238017;28;20278;-77
2022/04/17 13:08:10;;;;;;;1.35;1.33;;;13.60;62.30;;;;;;6219328;28;20312;-77
2022/04/17 13:11:23;;;;;;;1.58;1.50;;;13.70;62.50;;;;;;6235376;28;20288;-77
2022/04/17 13:14:29;;;;;;;1.50;1.50;;;13.80;61.60;;;;;;6237134;28;20297;-77
2022/04/17 13:17:46;;;;;;;1.50;1.50;;;13.90;61.20;;;;;;6237211;28;20296;-77
2022/04/17 13:20:51;;;;;;;1.40;1.30;;;13.90;61.50;;;;;;6237676;28;20383;-79
2022/04/17 13:24:01;;;;;;;1.35;1.35;;;13.90;60.90;;;;;;6236768;28;20452;-77
2022/04/17 13:27:08;;;;;;;2.03;1.30;;;14.00;60.70;;;;;;6236763;28;20292;-77
2022/04/17 13:30:20;;;;;;;1.58;1.30;;;13.80;60.30;;;;;;6237293;28;20454;-77
2022/04/17 13:33:25;;;;;;;1.67;1.30;;;13.90;60.70;;;;;;6236623;28;20300;-76
2022/04/17 13:36:30;;;;;;;3.63;1.45;;;13.70;60.20;;;;;;6236788;28;20423;-77
2022/04/17 13:39:36;;;;;;;3.22;1.15;;;13.60;60.50;;;;;;6235265;28;20479;-78
2022/04/17 13:42:42;;;;;;;1.33;1.23;;;13.60;60.00;;;;;;6236027;28;20295;-78
2022/04/17 13:45:47;;;;;;;1.13;1.13;;;13.60;59.90;;;;;;6236473;28;20272;-78
2022/04/17 13:48:53;;;;;;;5.40;1.20;;;13.50;60.40;;;;;;6236390;28;20308;-79
2022/04/17 13:51:58;;;;;;;1.13;1.13;;;13.60;60.10;;;;;;6237067;28;20277;-78
2022/04/17 13:55:04;;;;;;;1.95;1.40;;;13.50;60.20;;;;;;6237169;28;20293;-78
2022/04/17 13:58:14;;;;;;;1.10;1.10;;;13.70;60.50;;;;;;6236422;28;20309;-77
2022/04/17 14:01:19;;;;;;;1.75;1.00;;;13.70;60.30;;;;;;6235985;28;20567;-76
2022/04/17 14:04:25;;;;;;;1.35;1.30;;;13.70;60.50;;;;;;6235787;28;20502;-77
2022/04/17 14:07:31;;;;;;;2.00;1.38;;;13.70;60.80;;;;;;6235443;28;20324;-78
2022/04/17 14:10:36;;;;;;;3.30;1.13;;;13.70;59.80;;;;;;6236553;28;20288;-78
2022/04/17 14:13:43;;;;;;;2.38;1.02;;;13.60;59.90;;;;;;6235885;28;20296;-78
2022/04/17 14:16:48;;;;;;;1.10;1.10;;;13.60;60.50;;;;;;6236096;28;20471;-78
2022/04/17 14:19:54;;;;;;;1.40;1.30;;;13.60;59.80;;;;;;6234963;28;20276;-77
2022/04/17 14:22:59;;;;;;;1.27;1.17;;;13.60;59.70;;;;;;6235915;28;20296;-78
2022/04/17 14:26:04;;;;;;;1.08;1.08;;;13.50;59.40;;;;;;6236192;28;20272;-77
2022/04/17 14:29:12;;;;;;;1.50;1.02;;;13.50;59.90;;;;;;6235494;28;20305;-77
2022/04/17 14:32:18;;;;;;;1.20;1.20;;;13.50;60.20;;;;;;6235929;28;20311;-77
2022/04/17 14:35:23;;;;;;;1.23;1.20;;;13.60;60.00;;;;;;6236590;28;20272;-77
2022/04/17 14:38:29;;;;;;;1.33;1.25;;;13.50;59.70;;;;;;6235078;28;20304;-77
2022/04/17 14:41:35;;;;;;;1.42;1.10;;;13.40;60.90;;;;;;6235982;28;20268;-78
2022/04/17 14:44:41;;;;;;;1.58;1.10;;;13.30;60.40;;;;;;6235451;28;20296;-77
2022/04/17 14:47:47;;;;;;;1.17;1.13;;;13.30;60.90;;;;;;6235103;28;20300;-78
2022/04/17 14:50:53;;;;;;;1.67;1.23;;;13.30;61.20;;;;;;6236127;28;20272;-77
2022/04/17 14:53:58;;;;;;;1.10;1.02;;;13.40;61.00;;;;;;6240281;28;20300;-77
2022/04/17 14:57:04;;;;;;;1.10;1.10;;;13.40;60.10;;;;;;6240225;28;20268;-78
2022/04/17 15:00:12;;;;;;;1.75;1.10;;;13.40;60.50;;;;;;6240315;28;20333;-77
2022/04/17 15:03:18;;;;;;;1.08;1.05;;;13.30;60.20;;;;;;6239666;28;20595;-77
2022/04/17 15:06:23;;;;;;;3.33;1.20;;;13.30;60.60;;;;;;6240035;28;20467;-77
2022/04/17 15:09:30;;;;;;;3.53;1.20;;;13.20;60.20;;;;;;6238740;28;20304;-77
2022/04/17 15:12:35;;;;;;;1.50;1.00;;;13.20;60.70;;;;;;6215782;28;20297;-77
2022/04/17 15:15:42;;;;;;;2.50;1.08;;;13.20;60.20;;;;;;6216213;28;20276;-78
2022/04/17 15:18:47;;;;;;;2.92;1.25;;;13.20;60.10;;;;;;6215578;28;20323;-77
2022/04/17 15:21:52;;;;;;;1.13;1.10;;;13.30;60.00;;;;;;6215322;28;20269;-77
2022/04/17 15:25:00;;;;;;;3.60;1.15;;;13.20;60.40;;;;;;6216007;28;20268;-77
2022/04/17 15:28:06;;;;;;;3.10;1.25;;;13.10;60.20;;;;;;6215367;28;20318;-77
2022/04/17 15:31:15;;;;;;;1.92;1.15;;;13.10;60.60;;;;;;6216177;28;20277;-77
2022/04/17 15:34:25;;;;;;;1.10;1.10;;;13.10;60.60;;;;;;6215581;28;20583;-77
2022/04/17 15:37:30;;;;;;;2.80;1.10;;;13.00;60.60;;;;;;6215011;28;20478;-78
2022/04/17 15:40:37;;;;;;;1.30;1.20;;;12.90;61.20;;;;;;6214981;28;20276;-78
2022/04/17 15:50:30;;;;;;;1.08;0.80;;;12.80;61.50;;;;;;6215613;28;20628;-77
2022/04/17 15:53:35;;;;;;;2.05;1.17;;;12.70;62.10;;;;;;6214195;28;20357;-77
2022/04/17 15:56:40;;;;;;;2.53;1.00;;;12.60;61.20;;;;;;6215095;28;20293;-77
2022/04/17 15:59:46;;;;;;;1.65;1.00;;;12.60;62.40;;;;;;6215064;28;20321;-77
2022/04/17 16:02:53;;;;;;;1.10;1.10;;;12.50;62.60;;;;;;6214639;28;20289;-77
2022/04/17 16:05:58;;;;;;;1.20;1.20;;;12.50;62.10;;;;;;6215300;28;20273;-77
2022/04/17 16:09:11;;;;;;;0.90;0.90;;;12.40;62.10;;;;;;6214911;28;20297;-78
2022/04/17 16:12:16;;;;;;;0.70;0.70;;;12.30;61.70;;;;;;6236385;28;20324;-76
2022/04/17 16:15:21;;;;;;;0.88;0.88;;;12.30;61.80;;;;;;6238981;28;20276;-77
2022/04/17 16:18:28;;;;;;;2.05;1.08;;;12.20;62.20;;;;;;6238479;28;20296;-77
2022/04/17 16:21:33;;;;;;;1.45;1.05;;;12.20;62.00;;;;;;6221084;28;20281;-77
2022/04/17 16:24:38;;;;;;;1.38;1.00;;;12.20;62.30;;;;;;6238572;28;20600;-77
2022/04/17 16:27:43;;;;;;;1.30;1.30;;;12.10;62.20;;;;;;6238242;28;20288;-77
2022/04/17 16:30:49;;;;;;;4.03;1.27;;;12.10;62.80;;;;;;6237984;28;20288;-76
2022/04/17 16:33:56;;;;;;;1.70;1.10;;;12.00;62.70;;;;;;6238152;28;20292;-77
2022/04/17 16:37:02;;;;;;;4.45;4.35;;;12.00;63.30;;;;;;6238064;28;20276;-77
2022/04/17 16:40:09;;;;;;;3.17;1.48;;;11.90;63.30;;;;;;6237919;28;20276;-76